createdAt,value
2019-03-18T00:01:34.158Z,14.50
2019-03-18T00:04:07.056Z,14.90
2019-03-18T00:06:40.067Z,12.83
2019-03-18T00:09:13.103Z,13.90
2019-03-18T00:11:45.881Z,13.43
2019-03-18T00:14:19.369Z,11.33
2019-03-18T00:16:52.409Z,15.07
2019-03-18T00:19:25.557Z,12.87
2019-03-18T00:21:58.600Z,12.17
2019-03-18T00:24:31.410Z,13.20
2019-03-18T00:27:04.670Z,13.50
2019-03-18T00:29:38.018Z,13.30
2019-03-18T00:32:10.799Z,11.43
2019-03-18T00:34:43.796Z,12.87
2019-03-18T00:37:16.837Z,9.03
2019-03-18T00:39:50.417Z,10.40
2019-03-18T00:42:23.945Z,14.50
2019-03-18T00:44:56.821Z,10.23
2019-03-18T00:47:29.860Z,9.20
2019-03-18T00:50:03.036Z,11.43
2019-03-18T00:52:35.963Z,10.97
2019-03-18T00:55:09.570Z,10.47
2019-03-18T00:57:42.689Z,11.67
2019-03-18T01:00:15.846Z,10.63
2019-03-18T01:02:49.990Z,11.40
2019-03-18T01:05:22.999Z,9.97
2019-03-18T01:07:56.156Z,10.03
2019-03-18T01:10:28.870Z,9.67
2019-03-18T01:13:01.804Z,10.53
2019-03-18T01:15:34.885Z,9.87
2019-03-18T01:18:07.834Z,11.20
2019-03-18T01:20:41.314Z,10.53
2019-03-18T01:23:14.133Z,12.40
2019-03-18T01:25:47.196Z,6.13
2019-03-18T01:28:20.093Z,9.10
2019-03-18T01:30:53.701Z,8.20
2019-03-18T01:33:26.475Z,10.87
2019-03-18T01:35:59.258Z,11.20
2019-03-18T01:38:32.181Z,10.27
2019-03-18T01:41:05.253Z,12.20
2019-03-18T01:43:38.073Z,9.90
2019-03-18T01:46:10.819Z,13.57
2019-03-18T01:48:43.621Z,11.87
2019-03-18T01:51:16.375Z,11.97
2019-03-18T01:53:49.185Z,14.53
2019-03-18T01:56:21.938Z,13.53
2019-03-18T01:59:14.131Z,12.70
2019-03-18T02:01:49.475Z,12.97
2019-03-18T02:04:22.294Z,15.07
2019-03-18T02:06:55.236Z,11.77
2019-03-18T02:09:28.242Z,11.00
2019-03-18T02:12:01.014Z,11.83
2019-03-18T02:14:33.765Z,12.70
2019-03-18T02:17:06.667Z,9.70
2019-03-18T02:19:39.510Z,13.50
2019-03-18T02:22:13.236Z,12.00
2019-03-18T02:24:46.021Z,9.80
2019-03-18T02:27:19.954Z,10.90
2019-03-18T02:29:52.804Z,15.33
2019-03-18T02:32:25.487Z,13.27
2019-03-18T02:34:58.286Z,13.67
2019-03-18T02:37:31.240Z,10.67
2019-03-18T02:40:04.278Z,11.37
2019-03-18T02:42:37.137Z,14.97
2019-03-18T02:45:10.844Z,12.73
2019-03-18T02:47:44.684Z,13.40
2019-03-18T02:50:17.554Z,12.17
2019-03-18T02:52:50.368Z,13.90
2019-03-18T02:55:23.112Z,13.93
2019-03-18T02:57:57.488Z,10.20
2019-03-18T03:00:30.410Z,12.33
2019-03-18T03:03:04.449Z,9.80
2019-03-18T03:05:36.999Z,11.60
2019-03-18T03:08:09.690Z,12.80
2019-03-18T03:10:42.616Z,11.93
2019-03-18T03:13:15.477Z,13.00
2019-03-18T03:15:48.286Z,12.07
2019-03-18T03:18:21.208Z,13.10
2019-03-18T03:20:54.020Z,10.43
2019-03-18T03:23:26.847Z,14.10
2019-03-18T03:25:59.488Z,13.43
2019-03-18T03:28:32.245Z,12.17
2019-03-18T03:31:05.115Z,14.43
2019-03-18T03:33:38.078Z,13.20
2019-03-18T03:36:10.611Z,11.80
2019-03-18T03:38:43.648Z,9.57
2019-03-18T03:41:18.297Z,13.07
2019-03-18T03:43:51.559Z,14.63
2019-03-18T03:46:24.248Z,10.17
2019-03-18T03:48:57.150Z,13.80
2019-03-18T03:51:30.257Z,15.90
2019-03-18T03:54:03.384Z,10.93
2019-03-18T03:56:36.269Z,11.07
2019-03-18T03:59:09.141Z,12.27
2019-03-18T04:02:02.505Z,14.50
2019-03-18T04:04:35.457Z,14.43
2019-03-18T04:07:08.445Z,12.80
2019-03-18T04:12:36.135Z,16.20
2019-03-18T04:15:09.372Z,11.43
2019-03-18T04:17:42.112Z,17.83
2019-03-18T04:20:15.167Z,12.57
2019-03-18T04:22:48.023Z,14.90
2019-03-18T04:25:21.181Z,61.90
2019-03-18T04:27:54.033Z,14.07
2019-03-18T04:30:26.699Z,16.13
2019-03-18T04:32:59.787Z,17.60
2019-03-18T04:35:32.727Z,15.90
2019-03-18T04:38:05.653Z,16.63
2019-03-18T04:40:38.545Z,14.27
2019-03-18T04:43:11.441Z,14.83
2019-03-18T04:45:44.390Z,15.10
2019-03-18T04:48:18.331Z,13.80
2019-03-18T04:50:51.317Z,12.90
2019-03-18T04:53:24.399Z,21.73
2019-03-18T04:55:57.416Z,21.70
2019-03-18T04:58:30.604Z,26.60
2019-03-18T05:01:03.453Z,15.13
2019-03-18T05:03:36.883Z,14.97
2019-03-18T05:06:09.932Z,15.87
2019-03-18T05:08:42.814Z,15.37
2019-03-18T05:11:16.540Z,14.53
2019-03-18T05:13:50.012Z,15.00
2019-03-18T05:16:22.844Z,18.63
2019-03-18T05:18:55.972Z,16.00
2019-03-18T05:21:28.876Z,15.77
2019-03-18T05:24:01.929Z,13.67
2019-03-18T05:26:34.740Z,16.70
2019-03-18T05:29:07.851Z,39.10
2019-03-18T05:31:42.843Z,50.60
2019-03-18T05:34:16.494Z,27.13
2019-03-18T05:36:49.594Z,41.50
2019-03-18T05:39:22.833Z,99.80
2019-03-18T05:41:57.158Z,155.27
2019-03-18T05:44:30.166Z,35.17
2019-03-18T05:47:03.643Z,33.90
2019-03-18T05:49:36.773Z,28.43
2019-03-18T05:52:10.063Z,30.57
2019-03-18T05:54:43.319Z,25.63
2019-03-18T05:57:16.754Z,23.57
2019-03-18T05:59:51.419Z,24.17
2019-03-18T06:02:24.503Z,23.47
2019-03-18T06:04:57.419Z,27.93
2019-03-18T06:07:30.367Z,25.07
2019-03-18T06:10:03.639Z,20.50
2019-03-18T06:12:36.975Z,25.07
2019-03-18T06:15:10.744Z,24.97
2019-03-18T06:17:52.411Z,22.27
2019-03-18T06:20:20.282Z,26.97
2019-03-18T06:22:54.363Z,20.47
2019-03-18T06:25:27.746Z,25.77
2019-03-18T06:28:00.834Z,30.37
2019-03-18T06:30:33.867Z,25.20
2019-03-18T06:33:06.934Z,25.10
2019-03-18T06:35:40.745Z,18.03
2019-03-18T06:38:13.755Z,19.07
2019-03-18T06:40:46.775Z,19.27
2019-03-18T06:43:19.776Z,28.93
2019-03-18T06:45:52.676Z,23.83
2019-03-18T06:48:26.955Z,21.40
2019-03-18T06:51:00.061Z,18.13
2019-03-18T06:53:33.115Z,17.80
2019-03-18T06:56:06.658Z,28.93
2019-03-18T06:58:39.670Z,19.13
2019-03-18T07:01:12.774Z,17.13
2019-03-18T07:03:46.215Z,14.97
2019-03-18T07:06:19.371Z,21.37
2019-03-18T07:08:52.715Z,15.87
2019-03-18T07:11:26.209Z,18.03
2019-03-18T07:13:59.474Z,17.23
2019-03-18T07:16:33.125Z,19.27
2019-03-18T07:19:06.384Z,16.47
2019-03-18T07:21:39.564Z,19.73
2019-03-18T07:24:28.379Z,30.30
2019-03-18T07:27:27.917Z,16.10
2019-03-18T07:30:25.712Z,17.10
2019-03-18T07:32:58.881Z,19.70
2019-03-18T07:35:32.373Z,15.97
2019-03-18T07:38:05.342Z,16.60
2019-03-18T07:40:38.698Z,17.13
2019-03-18T07:43:11.652Z,15.20
2019-03-18T07:45:45.077Z,16.13
2019-03-18T07:48:30.035Z,13.53
2019-03-18T07:50:52.883Z,15.63
2019-03-18T07:53:25.780Z,21.43
2019-03-18T07:55:58.771Z,14.90
2019-03-18T07:58:31.863Z,15.73
2019-03-18T08:01:05.419Z,14.53
2019-03-18T08:03:38.869Z,13.40
2019-03-18T08:06:12.043Z,14.90
2019-03-18T08:08:44.968Z,24.53
2019-03-18T08:11:18.158Z,20.63
2019-03-18T08:13:51.326Z,13.13
2019-03-18T08:16:24.514Z,19.43
2019-03-18T08:18:57.376Z,56.00
2019-03-18T08:21:30.409Z,17.93
2019-03-18T08:24:03.572Z,15.73
2019-03-18T08:26:36.818Z,16.50
2019-03-18T08:29:09.666Z,14.57
2019-03-18T08:31:44.551Z,19.93
2019-03-18T08:34:17.748Z,18.23
2019-03-18T08:36:54.080Z,15.87
2019-03-18T08:39:27.232Z,22.97
2019-03-18T08:42:00.441Z,15.27
2019-03-18T08:44:33.559Z,17.97
2019-03-18T08:47:06.814Z,21.70
2019-03-18T08:49:39.885Z,17.47
2019-03-18T08:52:12.854Z,13.87
2019-03-18T08:54:46.158Z,16.23
2019-03-18T08:57:19.049Z,18.57
2019-03-18T08:59:52.604Z,15.63
2019-03-18T09:02:25.564Z,14.97
2019-03-18T09:04:58.973Z,16.37
2019-03-18T09:07:32.161Z,16.17
2019-03-18T09:10:05.909Z,14.90
2019-03-18T09:12:39.314Z,13.93
2019-03-18T09:15:13.032Z,12.43
2019-03-18T09:17:46.172Z,10.90
2019-03-18T09:20:19.251Z,13.27
2019-03-18T09:23:13.155Z,18.63
2019-03-18T09:25:48.566Z,13.53
2019-03-18T09:28:22.330Z,13.63
2019-03-18T09:30:55.389Z,16.00
2019-03-18T09:33:28.637Z,12.30
2019-03-18T09:36:01.887Z,16.00
2019-03-18T09:38:34.950Z,12.30
2019-03-18T09:41:09.121Z,15.03
2019-03-18T09:43:42.224Z,15.63
2019-03-18T09:46:15.325Z,12.80
2019-03-18T09:48:48.261Z,12.17
2019-03-18T09:51:21.568Z,11.47
2019-03-18T09:53:55.080Z,13.10
2019-03-18T09:56:28.368Z,13.07
2019-03-18T09:59:01.449Z,11.90
2019-03-18T10:01:34.692Z,13.37
2019-03-18T10:04:08.021Z,12.27
2019-03-18T10:06:41.136Z,10.00
2019-03-18T10:09:14.060Z,10.93
2019-03-18T10:11:47.345Z,10.03
2019-03-18T10:14:20.990Z,8.27
2019-03-18T10:16:54.204Z,9.93
2019-03-18T10:19:33.387Z,10.63
2019-03-18T10:22:02.168Z,11.70
2019-03-18T10:24:35.343Z,10.20
2019-03-18T10:27:08.506Z,9.23
2019-03-18T10:29:41.720Z,8.00
2019-03-18T10:32:14.831Z,8.17
2019-03-18T10:34:48.004Z,6.23
2019-03-18T10:37:21.074Z,9.97
2019-03-18T10:39:54.208Z,7.53
2019-03-18T10:42:27.255Z,8.57
2019-03-18T10:45:00.448Z,9.07
2019-03-18T10:47:34.697Z,8.97
2019-03-18T10:50:09.535Z,13.70
2019-03-18T10:53:02.439Z,73.17
2019-03-18T10:56:07.112Z,12.07
2019-03-18T10:58:52.332Z,5.20
2019-03-18T11:01:54.116Z,4.80
2019-03-18T11:04:27.217Z,5.00
2019-03-18T11:07:00.259Z,4.40
2019-03-18T11:09:33.375Z,2.80
2019-03-18T11:12:06.731Z,5.27
2019-03-18T11:14:40.626Z,2.70
2019-03-18T11:17:14.109Z,2.73
2019-03-18T11:19:57.799Z,3.00
2019-03-18T11:22:22.246Z,3.87
2019-03-18T11:24:56.057Z,4.30
2019-03-18T11:27:31.836Z,3.60
2019-03-18T11:30:08.245Z,2.00
2019-03-18T11:32:42.395Z,2.83
2019-03-18T11:35:18.375Z,3.53
2019-03-18T11:37:58.123Z,4.80
2019-03-18T11:40:35.589Z,2.40
2019-03-18T11:43:13.424Z,2.20
2019-03-18T11:45:47.706Z,5.40
2019-03-18T11:48:21.634Z,4.37
2019-03-18T11:51:00.443Z,2.30
2019-03-18T11:53:41.534Z,3.83
2019-03-18T11:56:18.176Z,2.70
2019-03-18T11:58:57.620Z,2.60
2019-03-18T12:01:32.275Z,2.20
2019-03-18T12:04:16.831Z,2.37
2019-03-18T12:06:50.262Z,3.03
2019-03-18T12:09:23.251Z,4.93
2019-03-18T12:11:56.033Z,2.17
2019-03-18T12:14:29.061Z,2.37
2019-03-18T12:17:02.085Z,3.37
2019-03-18T12:19:35.380Z,3.47
2019-03-18T12:22:09.567Z,1.80
2019-03-18T12:24:42.639Z,3.57
2019-03-18T12:27:15.909Z,5.07
2019-03-18T12:29:49.046Z,1.97
2019-03-18T12:32:22.326Z,3.23
2019-03-18T12:34:55.552Z,2.17
2019-03-18T12:37:28.638Z,2.33
2019-03-18T12:40:01.845Z,2.23
2019-03-18T12:42:34.938Z,2.20
2019-03-18T12:45:09.829Z,4.50
2019-03-18T12:47:43.061Z,5.00
2019-03-18T12:50:17.489Z,2.67
2019-03-18T12:52:50.591Z,3.57
2019-03-18T12:55:23.629Z,3.77
2019-03-18T12:57:56.912Z,2.37
2019-03-18T13:00:30.216Z,2.23
2019-03-18T13:03:03.506Z,2.87
2019-03-18T13:05:36.618Z,2.10
2019-03-18T13:08:09.973Z,3.43
2019-03-18T13:10:44.493Z,2.67
2019-03-18T13:13:18.088Z,2.87
2019-03-18T13:15:51.100Z,2.00
2019-03-18T13:18:25.005Z,4.17
2019-03-18T13:21:07.408Z,3.77
2019-03-18T13:23:33.337Z,3.07
2019-03-18T13:26:09.549Z,2.03
2019-03-18T13:28:42.733Z,3.60
2019-03-18T13:31:16.199Z,4.53
2019-03-18T13:34:15.957Z,2.83
2019-03-18T13:36:49.598Z,4.00
2019-03-18T13:39:22.889Z,3.30
2019-03-18T13:41:56.185Z,2.57
2019-03-18T13:44:30.082Z,3.60
2019-03-18T13:47:03.276Z,2.30
2019-03-18T13:49:36.355Z,2.97
2019-03-18T13:52:10.061Z,4.20
2019-03-18T13:54:43.650Z,2.63
2019-03-18T13:57:16.735Z,2.90
2019-03-18T13:59:50.184Z,2.97
2019-03-18T14:02:27.635Z,3.00
2019-03-18T14:05:00.997Z,3.90
2019-03-18T14:07:34.510Z,2.43
2019-03-18T14:10:09.585Z,2.97
2019-03-18T14:12:43.040Z,6.07
2019-03-18T14:15:17.477Z,4.97
2019-03-18T14:17:50.587Z,4.57
2019-03-18T14:20:23.748Z,2.73
2019-03-18T14:22:57.006Z,2.97
2019-03-18T14:25:30.735Z,4.17
2019-03-18T14:28:04.009Z,4.93
2019-03-18T14:30:38.168Z,3.13
2019-03-18T14:33:11.684Z,3.47
2019-03-18T14:35:44.794Z,3.43
2019-03-18T14:38:18.278Z,2.53
2019-03-18T14:40:52.563Z,3.80
2019-03-18T14:43:25.616Z,2.43
2019-03-18T14:45:58.728Z,3.07
2019-03-18T14:48:32.147Z,2.93
2019-03-18T14:51:05.213Z,3.43
2019-03-18T14:53:38.385Z,4.67
2019-03-18T14:56:18.717Z,5.00
2019-03-18T14:58:51.819Z,3.50
2019-03-18T15:01:25.394Z,4.07
2019-03-18T15:04:00.334Z,3.23
2019-03-18T15:06:33.426Z,2.17
2019-03-18T15:09:09.155Z,7.13
2019-03-18T15:11:43.020Z,3.37
2019-03-18T15:14:16.118Z,3.73
2019-03-18T15:16:49.321Z,3.63
2019-03-18T15:19:22.564Z,5.47
2019-03-18T15:21:58.642Z,6.13
2019-03-18T15:24:30.366Z,3.87
2019-03-18T15:27:03.333Z,6.13
2019-03-18T15:29:36.543Z,2.70
2019-03-18T15:32:09.653Z,2.87
2019-03-18T15:34:43.235Z,2.43
2019-03-18T15:37:16.398Z,5.03
2019-03-18T15:39:50.328Z,2.80
2019-03-18T15:42:23.955Z,2.70
2019-03-18T15:45:04.245Z,5.33
2019-03-18T15:47:37.503Z,2.50
2019-03-18T15:50:13.705Z,3.37
2019-03-18T15:52:47.133Z,5.00
2019-03-18T15:55:24.148Z,3.43
2019-03-18T15:57:56.882Z,2.30
2019-03-18T16:00:30.284Z,4.83
2019-03-18T16:03:03.483Z,4.10
2019-03-18T16:05:36.548Z,3.53
2019-03-18T16:08:10.294Z,5.23
2019-03-18T16:10:43.844Z,3.40
2019-03-18T16:13:17.105Z,7.57
2019-03-18T16:15:50.486Z,4.67
2019-03-18T16:18:23.840Z,3.67
2019-03-18T16:20:57.572Z,3.93
2019-03-18T16:23:30.939Z,6.93
2019-03-18T16:26:04.324Z,4.83
2019-03-18T16:28:37.474Z,5.73
2019-03-18T16:31:10.937Z,3.40
2019-03-18T16:33:44.360Z,4.33
2019-03-18T16:36:18.002Z,5.37
2019-03-18T16:38:51.398Z,6.43
2019-03-18T16:41:25.629Z,8.47
2019-03-18T16:44:00.737Z,5.47
2019-03-18T16:46:34.472Z,6.20
2019-03-18T16:49:08.284Z,7.50
2019-03-18T16:51:42.011Z,2.53
2019-03-18T16:54:18.580Z,2.77
2019-03-18T16:56:52.240Z,3.80
2019-03-18T16:59:25.731Z,6.00
2019-03-18T17:02:01.860Z,5.37
2019-03-18T17:04:36.027Z,3.43
2019-03-18T17:07:09.332Z,3.50
2019-03-18T17:09:42.812Z,3.20
2019-03-18T17:12:16.982Z,2.93
2019-03-18T17:14:50.303Z,2.73
2019-03-18T17:17:23.737Z,3.13
2019-03-18T17:19:57.189Z,3.07
2019-03-18T17:22:30.672Z,3.73
2019-03-18T17:25:04.289Z,5.57
2019-03-18T17:27:38.184Z,2.77
2019-03-18T17:30:16.101Z,4.67
2019-03-18T17:32:50.060Z,3.70
2019-03-18T17:35:23.523Z,3.20
2019-03-18T17:37:57.361Z,3.60
2019-03-18T17:40:31.080Z,2.73
2019-03-18T17:43:04.742Z,2.30
2019-03-18T17:45:38.000Z,5.87
2019-03-18T17:48:12.579Z,2.67
2019-03-18T17:50:45.892Z,6.60
2019-03-18T17:53:19.076Z,4.27
2019-03-18T17:55:52.409Z,3.87
2019-03-18T17:58:25.567Z,3.43
2019-03-18T18:00:58.995Z,3.73
2019-03-18T18:03:32.144Z,3.93
2019-03-18T18:06:06.628Z,3.47
2019-03-18T18:08:40.128Z,4.27
2019-03-18T18:11:13.552Z,2.83
2019-03-18T18:13:46.984Z,2.30
2019-03-18T18:16:20.323Z,3.43
2019-03-18T18:18:53.826Z,3.03
2019-03-18T18:21:27.452Z,6.03
2019-03-18T18:24:00.744Z,4.07
2019-03-18T18:26:33.726Z,4.40
2019-03-18T18:29:07.284Z,6.27
2019-03-18T18:31:40.690Z,3.87
2019-03-18T18:34:13.820Z,7.60
2019-03-18T18:36:47.385Z,8.87
2019-03-18T18:39:21.207Z,4.23
2019-03-18T18:41:54.545Z,3.73
2019-03-18T18:44:27.949Z,3.53
2019-03-18T18:47:09.236Z,5.30
2019-03-18T18:49:42.814Z,12.53
2019-03-18T18:52:16.595Z,10.50
2019-03-18T18:54:50.346Z,15.30
2019-03-18T18:57:23.801Z,15.63
2019-03-18T18:59:57.382Z,13.17
2019-03-18T19:02:31.143Z,70.60
2019-03-18T19:05:04.841Z,12.93
2019-03-18T19:07:38.685Z,16.73
2019-03-18T19:10:13.453Z,11.37
2019-03-18T19:12:46.944Z,8.73
2019-03-18T19:15:21.636Z,7.37
2019-03-18T19:17:55.175Z,10.40
2019-03-18T19:20:28.453Z,11.13
2019-03-18T19:23:02.249Z,6.03
2019-03-18T19:25:35.410Z,5.63
2019-03-18T19:28:09.022Z,6.87
2019-03-18T19:30:45.596Z,6.73
2019-03-18T19:33:19.546Z,5.00
2019-03-18T19:35:53.504Z,5.40
2019-03-18T19:38:27.257Z,8.37
2019-03-18T19:41:00.634Z,6.07
2019-03-18T19:43:34.170Z,5.27
2019-03-18T19:46:07.701Z,4.13
2019-03-18T19:48:41.319Z,7.07
2019-03-18T19:51:14.652Z,4.43
2019-03-18T19:53:49.450Z,5.17
2019-03-18T19:56:22.937Z,5.20
2019-03-18T19:58:58.286Z,5.67
2019-03-18T20:01:31.181Z,6.23
2019-03-18T20:04:03.800Z,5.90
2019-03-18T20:06:38.370Z,6.97
2019-03-18T20:09:11.863Z,7.73
2019-03-18T20:11:46.608Z,6.47
2019-03-18T20:14:19.929Z,4.43
2019-03-18T20:16:53.363Z,9.23
2019-03-18T20:19:26.668Z,6.07
2019-03-18T20:22:00.369Z,7.23
2019-03-18T20:24:33.793Z,6.10
2019-03-18T20:27:06.977Z,5.73
2019-03-18T20:29:40.205Z,8.20
2019-03-18T20:32:13.379Z,8.00
2019-03-18T20:34:46.795Z,8.73
2019-03-18T20:37:20.262Z,9.30
2019-03-18T20:39:55.201Z,5.23
2019-03-18T20:42:29.057Z,6.70
2019-03-18T20:45:02.146Z,7.87
2019-03-18T20:47:35.372Z,7.17
2019-03-18T20:50:11.134Z,6.27
2019-03-18T20:52:44.254Z,8.33
2019-03-18T20:55:18.313Z,6.20
2019-03-18T20:57:51.620Z,6.77
2019-03-18T21:00:24.728Z,5.23
2019-03-18T21:02:57.759Z,6.60
2019-03-18T21:05:31.013Z,6.70
2019-03-18T21:08:04.125Z,6.63
2019-03-18T21:10:37.608Z,7.37
2019-03-18T21:13:10.733Z,7.27
2019-03-18T21:15:43.981Z,6.47
2019-03-18T21:18:17.845Z,5.43
2019-03-18T21:20:50.610Z,7.47
2019-03-18T21:23:23.869Z,7.53
2019-03-18T21:25:57.153Z,11.90
2019-03-18T21:28:40.815Z,8.23
2019-03-18T21:31:05.961Z,7.90
2019-03-18T21:33:38.926Z,17.77
2019-03-18T21:36:12.160Z,16.87
2019-03-18T21:38:47.794Z,10.90
2019-03-18T21:41:20.961Z,11.20
2019-03-18T21:43:54.032Z,8.70
2019-03-18T21:46:27.167Z,11.60
2019-03-18T21:49:00.335Z,7.87
2019-03-18T21:51:33.259Z,9.13
2019-03-18T21:54:06.519Z,10.03
2019-03-18T21:56:39.644Z,11.80
2019-03-18T21:59:12.737Z,9.30
2019-03-18T22:01:46.622Z,8.10
2019-03-18T22:04:19.665Z,7.40
2019-03-18T22:06:52.729Z,7.03
2019-03-18T22:09:27.167Z,6.87
2019-03-18T22:12:00.127Z,6.57
2019-03-18T22:14:33.237Z,4.83
2019-03-18T22:17:06.492Z,7.53
2019-03-18T22:19:39.658Z,7.03
2019-03-18T22:22:12.870Z,5.07
2019-03-18T22:24:45.910Z,6.03
2019-03-18T22:27:18.906Z,5.93
2019-03-18T22:29:52.047Z,5.80
2019-03-18T22:32:25.233Z,8.53
2019-03-18T22:34:59.475Z,8.97
2019-03-18T22:37:32.367Z,8.17
2019-03-18T22:40:05.887Z,5.93
2019-03-18T22:42:39.052Z,6.00
2019-03-18T22:45:12.592Z,9.17
2019-03-18T22:47:45.812Z,8.67
2019-03-18T22:50:19.509Z,7.77
2019-03-18T22:52:52.554Z,7.50
2019-03-18T22:55:25.627Z,9.17
2019-03-18T22:57:58.899Z,7.70
2019-03-18T23:00:49.236Z,7.27
2019-03-18T23:03:23.196Z,7.93
2019-03-18T23:05:56.589Z,9.10
2019-03-18T23:08:30.593Z,11.57
2019-03-18T23:11:03.651Z,8.67
2019-03-18T23:13:36.898Z,10.57
2019-03-18T23:16:09.803Z,12.53
2019-03-18T23:18:42.951Z,10.17
2019-03-18T23:21:15.985Z,9.70
2019-03-18T23:23:49.168Z,7.13
2019-03-18T23:26:23.610Z,8.70
2019-03-18T23:28:56.609Z,12.10
2019-03-18T23:31:29.529Z,11.27
2019-03-18T23:34:02.797Z,10.80
2019-03-18T23:36:35.752Z,6.97
2019-03-18T23:39:11.549Z,9.67
2019-03-18T23:41:44.588Z,7.93
2019-03-18T23:44:17.552Z,8.57
2019-03-18T23:46:50.718Z,7.53
2019-03-18T23:49:23.466Z,9.17
2019-03-18T23:51:56.470Z,8.40
2019-03-18T23:54:29.608Z,9.83
2019-03-18T23:57:02.376Z,8.63
2019-03-18T23:59:35.234Z,6.67
